createdAt,value
2017-09-15T09:27:47.070Z,15.96
2017-09-15T09:28:56.227Z,15.94
2017-09-15T09:30:05.061Z,15.94
2017-09-15T09:31:13.916Z,16
2017-09-15T09:32:22.851Z,15.9
2017-09-15T09:33:31.692Z,15.92
2017-09-15T09:34:40.532Z,16.01
2017-09-15T09:35:49.367Z,16
2017-09-15T09:36:58.368Z,15.96
2017-09-15T09:38:07.203Z,15.9
2017-09-15T09:39:16.040Z,15.87
2017-09-15T09:40:24.886Z,15.84
2017-09-15T09:41:33.783Z,15.8
2017-09-15T09:42:43.270Z,15.74
2017-09-15T09:43:52.720Z,15.78
2017-09-15T09:45:02.148Z,15.86
2017-09-15T09:46:11.482Z,15.78
2017-09-15T09:47:20.656Z,15.87
2017-09-15T09:48:30.167Z,15.9
2017-09-15T09:49:39.483Z,16.02
2017-09-15T09:50:48.637Z,16.01
2017-09-15T09:51:57.476Z,16.02
2017-09-15T09:53:06.311Z,16.05
2017-09-15T09:54:15.646Z,16.02
2017-09-15T09:55:25.006Z,16
2017-09-15T09:56:33.845Z,16
2017-09-15T09:57:42.684Z,16.07
2017-09-15T09:58:51.518Z,16.14
2017-09-15T10:00:00.357Z,16.04
2017-09-15T10:01:09.196Z,16.17
2017-09-15T10:02:18.035Z,16.09
2017-09-15T10:03:26.869Z,16.12
2017-09-15T10:04:35.706Z,16.14
2017-09-15T10:05:44.549Z,16.14
2017-09-15T10:06:53.382Z,16.12
2017-09-15T10:08:02.216Z,16.09
2017-09-15T10:09:11.059Z,16.25
2017-09-15T10:10:20.219Z,16.14
2017-09-15T10:11:29.057Z,16.11
2017-09-15T10:12:37.922Z,16.23
2017-09-15T10:13:46.757Z,16.35
2017-09-15T10:14:55.595Z,16.3
2017-09-15T10:16:04.430Z,16.33
2017-09-15T10:17:13.263Z,16.33
2017-09-15T10:18:22.101Z,16.38
2017-09-15T10:19:30.941Z,16.43
2017-09-15T10:20:39.782Z,16.46
2017-09-15T10:21:48.941Z,16.38
2017-09-15T10:22:57.781Z,16.39
2017-09-15T10:24:06.616Z,16.35
2017-09-15T10:25:15.450Z,16.38
2017-09-15T10:26:24.289Z,16.42
2017-09-15T10:27:33.125Z,16.5
2017-09-15T10:28:42.288Z,16.53
2017-09-15T10:29:51.124Z,16.73
2017-09-15T10:30:59.965Z,16.7
2017-09-15T10:32:09.119Z,16.67
2017-09-15T10:33:17.960Z,16.81
2017-09-15T10:34:26.801Z,16.78
2017-09-15T10:35:35.638Z,16.83
2017-09-15T10:36:44.475Z,16.86
2017-09-15T10:37:53.308Z,16.83
2017-09-15T10:39:02.145Z,16.88
2017-09-15T10:40:10.982Z,16.89
2017-09-15T10:41:19.822Z,17.06
2017-09-15T10:42:28.655Z,17.12
2017-09-15T10:43:37.490Z,17.15
2017-09-15T10:44:46.326Z,17.18
2017-09-15T10:45:55.163Z,17.21
2017-09-15T10:47:04.007Z,17.31
2017-09-15T10:48:12.838Z,17.36
2017-09-15T10:49:21.678Z,17.4
2017-09-15T10:50:30.511Z,17.41
2017-09-15T10:51:39.354Z,17.41
2017-09-15T10:52:48.190Z,17.38
2017-09-15T10:53:57.032Z,17.33
2017-09-15T10:55:05.866Z,17.23
2017-09-15T10:56:14.701Z,17.21
2017-09-15T10:57:23.544Z,17.21
2017-09-15T10:58:32.379Z,17.19
2017-09-15T10:59:41.217Z,17.16
2017-09-15T11:00:50.052Z,17.12
2017-09-15T11:01:58.886Z,17.07
2017-09-15T11:03:08.039Z,17.07
2017-09-15T11:04:16.881Z,17.01
2017-09-15T11:05:25.720Z,16.93
2017-09-15T11:06:34.553Z,16.88
2017-09-15T11:07:43.392Z,17.01
2017-09-15T11:08:52.228Z,17.01
2017-09-15T11:10:01.067Z,16.96
2017-09-15T11:11:09.906Z,16.98
2017-09-15T11:12:18.740Z,17.01
2017-09-15T11:13:27.576Z,17.06
2017-09-15T11:14:36.409Z,17.07
2017-09-15T11:15:45.250Z,17.06
2017-09-15T11:16:54.084Z,17
2017-09-15T11:18:02.924Z,16.96
2017-09-15T11:19:11.759Z,16.96
2017-09-15T11:20:20.599Z,16.96
2017-09-15T11:21:29.439Z,16.94
2017-09-15T11:22:38.274Z,17.01
2017-09-15T11:23:47.112Z,16.97
2017-09-15T11:24:55.954Z,17
2017-09-15T11:26:04.788Z,17
2017-09-15T11:27:13.627Z,17.11
2017-09-15T11:28:22.462Z,17.14
2017-09-15T11:29:31.306Z,17.11
2017-09-15T11:30:40.146Z,17.19
2017-09-15T11:31:48.981Z,17.12
2017-09-15T11:32:57.819Z,17.3
2017-09-15T11:34:06.982Z,17.16
2017-09-15T11:35:15.821Z,17.18
2017-09-15T11:36:24.658Z,17.21
2017-09-15T11:37:33.499Z,17.31
2017-09-15T11:38:42.339Z,17.3
2017-09-15T11:39:51.173Z,17.33
2017-09-15T11:41:00.009Z,17.25
2017-09-15T11:42:08.847Z,17.25
2017-09-15T11:43:17.680Z,17.23
2017-09-15T11:44:26.520Z,17.28
2017-09-15T11:45:35.350Z,17.31
2017-09-15T11:46:44.518Z,17.31
2017-09-15T11:47:53.351Z,17.33
2017-09-15T11:49:02.200Z,17.38
2017-09-15T11:50:11.034Z,17.43
2017-09-15T11:51:19.876Z,17.46
2017-09-15T11:52:28.710Z,17.54
2017-09-15T11:53:37.543Z,17.59
2017-09-15T11:54:46.385Z,17.59
2017-09-15T11:55:55.221Z,17.72
2017-09-15T11:57:04.060Z,17.66
2017-09-15T11:58:12.899Z,17.77
2017-09-15T11:59:21.739Z,17.71
2017-09-15T12:00:30.574Z,17.55
2017-09-15T12:01:39.413Z,17.56
2017-09-15T12:02:48.250Z,17.52
2017-09-15T12:03:57.081Z,17.52
2017-09-15T12:05:05.922Z,17.55
2017-09-15T12:06:14.758Z,17.59
2017-09-15T12:07:23.597Z,17.59
2017-09-15T12:08:32.429Z,17.58
2017-09-15T12:09:41.270Z,17.59
2017-09-15T12:10:50.105Z,17.58
2017-09-15T12:11:58.940Z,17.59
2017-09-15T12:13:08.106Z,17.63
2017-09-15T12:14:16.940Z,17.7
2017-09-15T12:15:25.778Z,17.63
2017-09-15T12:16:34.618Z,17.59
2017-09-15T12:17:43.458Z,17.56
2017-09-15T12:18:52.298Z,17.56
2017-09-15T12:20:01.135Z,17.58
2017-09-15T12:21:09.971Z,17.71
2017-09-15T12:22:18.807Z,17.72
2017-09-15T12:23:27.648Z,17.84
2017-09-15T12:24:36.482Z,17.89
2017-09-15T12:25:45.319Z,17.9
2017-09-15T12:26:54.173Z,17.9
2017-09-15T12:28:02.998Z,17.96
2017-09-15T12:29:11.834Z,17.99
2017-09-15T12:30:20.674Z,18.07
2017-09-15T12:31:29.505Z,18.07
2017-09-15T12:32:38.344Z,18.12
2017-09-15T12:33:47.185Z,18.15
2017-09-15T12:34:56.021Z,18.26
2017-09-15T12:36:04.859Z,18.27
2017-09-15T12:37:13.697Z,18.3
2017-09-15T12:38:22.534Z,18.45
2017-09-15T12:39:31.372Z,18.45
2017-09-15T12:40:40.209Z,18.36
2017-09-15T12:41:49.045Z,18.39
2017-09-15T12:42:57.880Z,18.32
2017-09-15T12:44:06.725Z,18.3
2017-09-15T12:45:15.559Z,18.25
2017-09-15T12:46:24.403Z,18.29
2017-09-15T12:47:33.239Z,18.25
2017-09-15T12:48:42.084Z,18.25
2017-09-15T12:49:51.245Z,18.27
2017-09-15T12:51:00.084Z,18.27
2017-09-15T12:52:08.929Z,18.2
2017-09-15T12:53:17.756Z,18.17
2017-09-15T12:54:26.596Z,18.15
2017-09-15T12:55:35.437Z,18.12
2017-09-15T12:56:44.273Z,18.11
2017-09-15T12:57:53.111Z,18.14
2017-09-15T12:59:01.954Z,18.12
2017-09-15T13:00:10.790Z,18.15
2017-09-15T13:01:19.632Z,18.1
2017-09-15T13:02:28.476Z,18.12
2017-09-15T13:03:37.311Z,18.18
2017-09-15T13:04:46.152Z,18.25
2017-09-15T13:05:54.986Z,18.29
2017-09-15T13:07:03.827Z,18.23
2017-09-15T13:08:12.666Z,18.23
2017-09-15T13:09:21.512Z,18.29
2017-09-15T13:10:30.348Z,18.29
2017-09-15T13:11:39.188Z,18.21
2017-09-15T13:12:48.025Z,18.33
2017-09-15T13:13:56.860Z,18.27
2017-09-15T13:15:05.702Z,18.27
2017-09-15T13:16:14.541Z,18.26
2017-09-15T13:17:23.382Z,18.26
2017-09-15T13:18:32.217Z,18.27
2017-09-15T13:19:41.053Z,18.29
2017-09-15T13:20:49.890Z,18.25
2017-09-15T13:21:58.730Z,18.3
2017-09-15T13:23:07.573Z,18.26
2017-09-15T13:24:16.409Z,18.26
2017-09-15T13:25:25.243Z,18.27
2017-09-15T13:26:34.083Z,18.25
2017-09-15T13:27:43.245Z,18.25
2017-09-15T13:28:52.085Z,18.25
2017-09-15T13:30:00.924Z,18.27
2017-09-15T13:31:09.762Z,18.26
2017-09-15T13:32:18.603Z,18.25
2017-09-15T13:33:27.438Z,18.36
2017-09-15T13:34:36.278Z,18.36
2017-09-15T13:35:45.119Z,18.41
2017-09-15T13:36:53.958Z,18.48
2017-09-15T13:38:02.792Z,18.45
2017-09-15T13:39:11.631Z,18.48
2017-09-15T13:40:20.466Z,18.39
2017-09-15T13:41:29.305Z,18.48
2017-09-15T13:42:38.139Z,18.41
2017-09-15T13:43:46.987Z,18.45
2017-09-15T13:44:55.818Z,18.51
2017-09-15T13:46:04.660Z,18.39
2017-09-15T13:47:13.500Z,18.37
2017-09-15T13:48:22.338Z,18.36
2017-09-15T13:49:31.180Z,18.35
2017-09-15T13:50:40.017Z,18.33
2017-09-15T13:51:48.854Z,18.37
2017-09-15T13:52:57.689Z,18.25
2017-09-15T13:54:06.528Z,18.26
2017-09-15T13:55:15.365Z,18.27
2017-09-15T13:56:24.200Z,18.27
2017-09-15T13:57:33.367Z,18.26
2017-09-15T13:58:42.530Z,18.21
2017-09-15T13:59:51.369Z,18.2
2017-09-15T14:01:00.203Z,18.17
2017-09-15T14:02:09.040Z,18.17
2017-09-15T14:03:18.202Z,18.11
2017-09-15T14:04:27.043Z,18.15
2017-09-15T14:05:35.883Z,18.1
2017-09-15T14:06:44.719Z,18.11
2017-09-15T14:07:53.553Z,18.14
2017-09-15T14:09:02.393Z,18.1
2017-09-15T14:10:11.230Z,18.03
2017-09-15T14:11:20.073Z,18.03
2017-09-15T14:12:28.906Z,17.96
2017-09-15T14:13:37.745Z,18
2017-09-15T14:14:46.583Z,18
2017-09-15T14:15:55.425Z,17.99
2017-09-15T14:17:04.261Z,17.96
2017-09-15T14:18:13.103Z,17.87
2017-09-15T14:19:21.937Z,17.9
2017-09-15T14:20:30.773Z,17.9
2017-09-15T14:21:39.613Z,17.86
2017-09-15T14:22:48.456Z,17.81
2017-09-15T14:23:57.291Z,17.78
2017-09-15T14:25:06.128Z,17.74
2017-09-15T14:26:15.166Z,17.71
2017-09-15T14:27:24.002Z,17.72
2017-09-15T14:28:32.839Z,17.7
2017-09-15T14:29:41.680Z,17.58
2017-09-15T14:30:50.517Z,17.58
2017-09-15T14:31:59.356Z,17.51
2017-09-15T14:33:08.191Z,17.55
2017-09-15T14:34:17.023Z,17.34
2017-09-15T14:35:25.865Z,17.21
2017-09-15T14:36:34.701Z,16.76
2017-09-15T14:37:43.735Z,16.45
2017-09-15T14:38:52.903Z,16.17
2017-09-15T14:40:01.742Z,16.15
2017-09-15T14:41:10.576Z,16.07
2017-09-15T14:42:19.417Z,16.05
2017-09-15T14:43:28.596Z,15.92
2017-09-15T14:44:37.427Z,15.78
2017-09-15T14:45:46.263Z,15.65
2017-09-15T14:46:55.102Z,15.57
2017-09-15T14:48:03.948Z,15.53
2017-09-15T14:49:12.783Z,15.47
2017-09-15T14:50:21.617Z,15.43
2017-09-15T14:51:30.450Z,15.38
2017-09-15T14:52:39.290Z,15.29
2017-09-15T14:53:48.128Z,15.28
2017-09-15T14:54:56.960Z,15.43
2017-09-15T14:56:05.798Z,15.43
2017-09-15T14:57:14.641Z,15.38
2017-09-15T14:58:23.468Z,15.49
2017-09-15T14:59:32.629Z,15.46
2017-09-15T15:00:41.796Z,15.41
2017-09-15T15:01:50.629Z,15.5
2017-09-15T15:02:59.468Z,15.56
2017-09-15T15:04:08.298Z,15.49
2017-09-15T15:05:17.138Z,15.44
2017-09-15T15:06:25.970Z,15.44
2017-09-15T15:07:34.802Z,15.49
2017-09-15T15:08:43.638Z,15.59
2017-09-15T15:09:52.478Z,15.46
2017-09-15T15:11:01.316Z,15.56
2017-09-15T15:12:10.152Z,15.56
2017-09-15T15:13:18.990Z,15.56
2017-09-15T15:14:27.825Z,15.5
2017-09-15T15:15:36.662Z,15.47
2017-09-15T15:16:45.497Z,15.47
2017-09-15T15:17:54.338Z,15.46
2017-09-15T15:19:03.174Z,15.47
2017-09-15T15:20:12.012Z,15.5
2017-09-15T15:21:20.848Z,15.41
2017-09-15T15:22:29.679Z,15.5
2017-09-15T15:23:38.519Z,15.46
2017-09-15T15:24:47.351Z,15.38
2017-09-15T15:25:56.193Z,15.41
2017-09-15T15:27:05.028Z,15.34
2017-09-15T15:28:13.861Z,15.35
2017-09-15T15:29:23.019Z,15.46
2017-09-15T15:30:31.857Z,15.35
2017-09-15T15:31:40.693Z,15.5
2017-09-15T15:32:49.534Z,15.41
2017-09-15T15:33:58.368Z,15.46
2017-09-15T15:35:07.204Z,15.35
2017-09-15T15:36:16.039Z,15.39
2017-09-15T15:37:24.874Z,15.49
2017-09-15T15:38:34.036Z,15.47
2017-09-15T15:39:42.869Z,15.38
2017-09-15T15:40:51.705Z,15.32
2017-09-15T15:42:00.543Z,15.41
2017-09-15T15:43:09.376Z,15.43
2017-09-15T15:44:18.211Z,15.39
2017-09-15T15:45:27.044Z,15.43
2017-09-15T15:46:35.881Z,15.39
2017-09-15T15:47:44.717Z,15.39
2017-09-15T15:48:53.555Z,15.46
2017-09-15T15:50:02.391Z,15.34
2017-09-15T15:51:11.226Z,15.38
2017-09-15T15:52:20.065Z,15.38
2017-09-15T15:53:28.897Z,15.38
2017-09-15T15:54:37.739Z,15.46
2017-09-15T15:55:46.576Z,15.43
2017-09-15T15:56:55.409Z,15.41
2017-09-15T15:58:04.245Z,15.41
2017-09-15T15:59:13.082Z,15.35
2017-09-15T16:00:21.919Z,15.41
2017-09-15T16:01:30.755Z,15.35
2017-09-15T16:02:39.594Z,15.36
2017-09-15T16:03:48.421Z,15.39
2017-09-15T16:04:57.261Z,15.35
2017-09-15T16:06:06.102Z,15.36
2017-09-15T16:07:14.936Z,15.32
2017-09-15T16:08:23.772Z,15.36
2017-09-15T16:09:32.604Z,15.27
2017-09-15T16:10:41.442Z,15.31
2017-09-15T16:11:50.283Z,15.31
2017-09-15T16:12:59.121Z,15.27
2017-09-15T16:14:07.953Z,15.32
2017-09-15T16:15:16.794Z,15.29
2017-09-15T16:16:25.626Z,15.28
2017-09-15T16:17:34.460Z,15.29
2017-09-15T16:18:43.295Z,15.23
2017-09-15T16:19:52.789Z,15.28
2017-09-15T16:21:01.625Z,15.2
2017-09-15T16:22:10.461Z,15.2
2017-09-15T16:23:19.299Z,15.19
2017-09-15T16:24:28.126Z,15.17
2017-09-15T16:25:36.965Z,15.28
2017-09-15T16:26:45.801Z,15.17
2017-09-15T16:27:54.641Z,15.25
2017-09-15T16:29:03.475Z,15.2
2017-09-15T16:30:12.309Z,15.21
2017-09-15T16:31:21.145Z,15.23
2017-09-15T16:32:29.982Z,15.25
2017-09-15T16:33:38.822Z,15.19
2017-09-15T16:34:47.651Z,15.25
2017-09-15T16:35:56.481Z,15.2
2017-09-15T16:37:05.319Z,15.2
2017-09-15T16:38:14.156Z,15.2
2017-09-15T16:39:22.997Z,15.23
2017-09-15T16:40:31.831Z,15.25
2017-09-15T16:41:40.663Z,15.25
2017-09-15T16:42:49.492Z,15.2
2017-09-15T16:43:58.333Z,15.25
2017-09-15T16:45:07.165Z,15.14
2017-09-15T16:46:16.006Z,15.19
2017-09-15T16:47:24.842Z,15.23
2017-09-15T16:48:33.677Z,15.27
2017-09-15T16:49:42.512Z,15.27
2017-09-15T16:50:51.353Z,15.23
2017-09-15T16:52:00.186Z,15.2
2017-09-15T16:53:09.025Z,15.27
2017-09-15T16:54:17.857Z,15.21
2017-09-15T16:55:26.696Z,15.27
2017-09-15T16:56:35.528Z,15.21
2017-09-15T16:57:44.371Z,15.21
2017-09-15T16:58:53.205Z,15.19
2017-09-15T17:00:02.047Z,15.2
2017-09-15T17:01:10.882Z,15.2
2017-09-15T17:02:19.716Z,15.19
2017-09-15T17:03:28.550Z,15.21
2017-09-15T17:04:37.384Z,15.2
2017-09-15T17:05:46.219Z,15.16
2017-09-15T17:06:55.059Z,15.17
2017-09-15T17:08:04.220Z,15.14
2017-09-15T17:09:13.068Z,15.13
2017-09-15T17:10:21.905Z,15.16
2017-09-15T17:11:31.061Z,15.16
2017-09-15T17:12:39.897Z,15.16
2017-09-15T17:13:48.728Z,15.16
2017-09-15T17:14:57.566Z,15.19
2017-09-15T17:16:06.398Z,15.09
2017-09-15T17:17:15.237Z,15.1
2017-09-15T17:18:24.071Z,15.07
2017-09-15T17:19:32.913Z,15.07
2017-09-15T17:20:41.748Z,15.09
2017-09-15T17:21:50.589Z,15.13
2017-09-15T17:22:59.422Z,15.07
2017-09-15T17:24:08.263Z,15.01
2017-09-15T17:25:17.092Z,14.99
2017-09-15T17:26:25.930Z,15.03
2017-09-15T17:27:34.769Z,14.99
2017-09-15T17:28:43.614Z,15.11
2017-09-15T17:29:52.448Z,15.03
2017-09-15T17:31:01.283Z,15.1
2017-09-15T17:32:10.124Z,15.07
2017-09-15T17:33:18.953Z,15.06
2017-09-15T17:34:27.789Z,15.07
2017-09-15T17:35:36.624Z,15.01
2017-09-15T17:36:45.463Z,14.99
2017-09-15T17:37:54.300Z,15.02
2017-09-15T17:39:03.135Z,15.01
2017-09-15T17:40:11.970Z,15.02
2017-09-15T17:41:20.802Z,15.01
2017-09-15T17:42:29.639Z,14.99
2017-09-15T17:43:38.471Z,14.99
2017-09-15T17:44:47.309Z,15.02
2017-09-15T17:45:56.143Z,15.02
2017-09-15T17:47:04.981Z,14.98
2017-09-15T17:48:13.816Z,15.02
2017-09-15T17:49:22.657Z,15.06
2017-09-15T17:50:31.492Z,15.01
2017-09-15T17:51:40.331Z,14.96
2017-09-15T17:52:49.165Z,14.95
2017-09-15T17:53:58.000Z,14.98
2017-09-15T17:55:06.834Z,15.07
2017-09-15T17:56:15.673Z,15.03
2017-09-15T17:57:24.511Z,15.01
2017-09-15T17:58:33.349Z,14.99
2017-09-15T17:59:42.180Z,14.92
2017-09-15T18:00:51.012Z,14.99
2017-09-15T18:01:59.850Z,15.09
2017-09-15T18:03:08.686Z,14.95
2017-09-15T18:04:17.516Z,14.94
2017-09-15T18:05:26.357Z,14.92
2017-09-15T18:06:35.194Z,14.99
2017-09-15T18:07:44.028Z,15.01
2017-09-15T18:08:52.863Z,15.02
2017-09-15T18:10:01.705Z,15.07
2017-09-15T18:11:10.534Z,14.94
2017-09-15T18:12:19.374Z,15.07
2017-09-15T18:13:28.203Z,14.91
2017-09-15T18:14:37.051Z,15.02
2017-09-15T18:15:45.890Z,15.03
2017-09-15T18:16:54.732Z,15.06
2017-09-15T18:18:03.566Z,14.92
2017-09-15T18:19:12.399Z,14.91
2017-09-15T18:20:21.231Z,15.03
2017-09-15T18:21:30.070Z,14.98
2017-09-15T18:22:38.911Z,14.99
2017-09-15T18:23:47.751Z,14.99
2017-09-15T18:24:56.581Z,14.99
2017-09-15T18:26:05.416Z,14.99
2017-09-15T18:27:14.252Z,14.98
2017-09-15T18:28:23.086Z,15.02
2017-09-15T18:29:31.926Z,14.96
2017-09-15T18:30:40.759Z,14.96
2017-09-15T18:31:49.594Z,15.01
2017-09-15T18:32:58.428Z,14.99
2017-09-15T18:34:07.265Z,14.96
2017-09-15T18:35:16.103Z,14.99
2017-09-15T18:36:24.936Z,14.95
2017-09-15T18:37:33.776Z,15.02
2017-09-15T18:38:42.606Z,14.95
2017-09-15T18:39:51.768Z,15.02
2017-09-15T18:41:00.606Z,14.91
2017-09-15T18:42:09.444Z,14.89
2017-09-15T18:43:18.278Z,14.94
2017-09-15T18:44:27.114Z,15.01
2017-09-15T18:45:35.949Z,14.95
2017-09-15T18:46:44.784Z,14.98
2017-09-15T18:47:53.618Z,14.98
2017-09-15T18:49:02.452Z,15.01
2017-09-15T18:50:11.288Z,15.01
2017-09-15T18:51:20.129Z,15.02
2017-09-15T18:52:29.293Z,15.02
2017-09-15T18:53:38.128Z,15.01
2017-09-15T18:54:46.961Z,14.99
2017-09-15T18:55:55.798Z,15.02
2017-09-15T18:57:04.632Z,15.03
2017-09-15T18:58:13.798Z,15.01
2017-09-15T18:59:22.635Z,15.01
2017-09-15T19:00:31.790Z,15.01
2017-09-15T19:01:40.629Z,14.99
2017-09-15T19:02:49.466Z,15.03
2017-09-15T19:03:58.304Z,15.06
2017-09-15T19:05:07.141Z,14.99
2017-09-15T19:06:15.975Z,14.98
2017-09-15T19:07:24.825Z,14.95
2017-09-15T19:08:33.662Z,14.96
2017-09-15T19:09:42.503Z,14.96
2017-09-15T19:10:51.339Z,14.98
2017-09-15T19:12:00.180Z,14.99
2017-09-15T19:13:09.012Z,14.98
2017-09-15T19:14:17.843Z,14.95
2017-09-15T19:15:26.678Z,14.94
2017-09-15T19:16:35.518Z,14.94
2017-09-15T19:17:44.356Z,14.89
2017-09-15T19:18:53.196Z,14.91
2017-09-15T19:20:02.031Z,14.81
2017-09-15T19:21:10.864Z,14.89
2017-09-15T19:22:19.698Z,14.81
2017-09-15T19:23:28.537Z,14.84
2017-09-15T19:24:37.382Z,14.81
2017-09-15T19:25:46.213Z,14.78
2017-09-15T19:26:55.050Z,14.77
2017-09-15T19:28:03.895Z,14.83
2017-09-15T19:29:12.729Z,14.86
2017-09-15T19:30:21.566Z,14.78
2017-09-15T19:31:30.401Z,14.83
2017-09-15T19:32:39.241Z,14.69
2017-09-15T19:33:48.074Z,14.83
2017-09-15T19:34:56.914Z,14.72
2017-09-15T19:36:05.750Z,14.69
2017-09-15T19:37:14.582Z,14.69
2017-09-15T19:38:23.416Z,14.69
2017-09-15T19:39:32.247Z,14.7
2017-09-15T19:40:41.406Z,14.69
2017-09-15T19:41:50.244Z,14.69
2017-09-15T19:42:59.077Z,14.72
2017-09-15T19:44:07.910Z,14.8
2017-09-15T19:45:16.747Z,14.69
2017-09-15T19:46:25.588Z,14.72
2017-09-15T19:47:34.425Z,14.65
2017-09-15T19:48:43.264Z,14.65
2017-09-15T19:49:52.096Z,14.7
2017-09-15T19:51:00.929Z,14.7
2017-09-15T19:52:09.768Z,14.69
2017-09-15T19:53:18.609Z,14.69
2017-09-15T19:54:27.450Z,14.65
2017-09-15T19:55:36.612Z,14.78
2017-09-15T19:56:45.450Z,14.6
2017-09-15T19:57:54.285Z,14.72
2017-09-15T19:59:03.123Z,14.69
2017-09-15T20:00:11.963Z,14.7
2017-09-15T20:01:20.792Z,14.7
2017-09-15T20:02:29.630Z,14.69
2017-09-15T20:03:38.458Z,14.62
2017-09-15T20:04:47.299Z,14.65
2017-09-15T20:05:56.139Z,14.65
2017-09-15T20:07:04.977Z,14.65
2017-09-15T20:08:13.809Z,14.58
2017-09-15T20:09:22.641Z,14.57
2017-09-15T20:10:31.477Z,14.65
2017-09-15T20:11:40.310Z,14.61
2017-09-15T20:12:49.149Z,14.62
2017-09-15T20:13:57.989Z,14.62
2017-09-15T20:15:06.820Z,14.64
2017-09-15T20:16:15.654Z,14.62
2017-09-15T20:17:24.493Z,14.6
2017-09-15T20:18:33.661Z,14.65
2017-09-15T20:19:42.504Z,14.64
2017-09-15T20:20:51.342Z,14.68
2017-09-15T20:22:00.184Z,14.62
2017-09-15T20:23:09.019Z,14.65
2017-09-15T20:24:17.859Z,14.65
2017-09-15T20:25:26.690Z,14.65
2017-09-15T20:26:35.531Z,14.61
2017-09-15T20:27:44.362Z,14.6
2017-09-15T20:28:53.195Z,14.58
2017-09-15T20:30:02.034Z,14.65
2017-09-15T20:31:10.871Z,14.68
2017-09-15T20:32:19.711Z,14.58
2017-09-15T20:33:28.548Z,14.61
2017-09-15T20:34:37.383Z,14.65
2017-09-15T20:35:46.217Z,14.6
2017-09-15T20:36:55.049Z,14.65
2017-09-15T20:38:03.886Z,14.57
2017-09-15T20:39:12.730Z,14.6
2017-09-15T20:40:21.566Z,14.62
2017-09-15T20:41:30.404Z,14.6
2017-09-15T20:42:39.242Z,14.62
2017-09-15T20:43:48.078Z,14.6
2017-09-15T20:44:56.914Z,14.55
2017-09-15T20:46:05.748Z,14.57
2017-09-15T20:47:14.585Z,14.58
2017-09-15T20:48:23.423Z,14.54
2017-09-15T20:49:32.260Z,14.54
2017-09-15T20:50:41.096Z,14.6
2017-09-15T20:51:49.933Z,14.52
2017-09-15T20:52:58.769Z,14.57
2017-09-15T20:54:07.601Z,14.55
2017-09-15T20:55:16.434Z,14.5
2017-09-15T20:56:25.271Z,14.5
2017-09-15T20:57:34.109Z,14.55
2017-09-15T20:58:42.945Z,14.5
2017-09-15T20:59:52.111Z,14.5
2017-09-15T21:01:00.947Z,14.47
2017-09-15T21:02:09.787Z,14.46
2017-09-15T21:03:18.620Z,14.51
2017-09-15T21:04:27.449Z,14.45
2017-09-15T21:05:36.293Z,14.5
2017-09-15T21:06:45.128Z,14.47
2017-09-15T21:07:53.969Z,14.5
2017-09-15T21:09:02.805Z,14.43
2017-09-15T21:10:11.640Z,14.42
2017-09-15T21:11:20.471Z,14.45
2017-09-15T21:12:29.311Z,14.45
2017-09-15T21:13:38.141Z,14.4
2017-09-15T21:14:46.980Z,14.43
2017-09-15T21:15:55.817Z,14.42
2017-09-15T21:17:04.655Z,14.43
2017-09-15T21:18:13.491Z,14.5
2017-09-15T21:19:22.328Z,14.4
2017-09-15T21:20:31.162Z,14.43
2017-09-15T21:21:39.997Z,14.4
2017-09-15T21:22:48.832Z,14.45
2017-09-15T21:23:57.987Z,14.43
2017-09-15T21:25:06.828Z,14.35
2017-09-15T21:26:15.663Z,14.36
2017-09-15T21:27:24.494Z,14.42
2017-09-15T21:28:33.338Z,14.45
2017-09-15T21:29:42.180Z,14.32
2017-09-15T21:30:51.039Z,14.42
2017-09-15T21:31:59.845Z,14.35
2017-09-15T21:33:08.678Z,14.39
2017-09-15T21:34:17.841Z,14.37
2017-09-15T21:35:27.031Z,14.39
2017-09-15T21:36:35.871Z,14.43
2017-09-15T21:37:45.032Z,14.39
2017-09-15T21:38:53.874Z,14.36
2017-09-15T21:40:02.707Z,14.36
2017-09-15T21:41:11.540Z,14.39
2017-09-15T21:42:20.379Z,14.28
2017-09-15T21:43:29.211Z,14.36
2017-09-15T21:44:38.050Z,14.4
2017-09-15T21:45:46.885Z,14.25
2017-09-15T21:46:55.722Z,14.24
2017-09-15T21:48:04.882Z,14.36
2017-09-15T21:49:13.720Z,14.39
2017-09-15T21:50:22.562Z,14.24
2017-09-15T21:51:31.388Z,14.35
2017-09-15T21:52:40.228Z,14.29
2017-09-15T21:53:49.066Z,14.33
2017-09-15T21:54:57.903Z,14.37
2017-09-15T21:56:06.734Z,14.27
2017-09-15T21:57:15.570Z,14.24
2017-09-15T21:58:24.410Z,14.25
2017-09-15T21:59:33.244Z,14.22
2017-09-15T22:00:42.079Z,14.21
2017-09-15T22:01:50.914Z,14.28
2017-09-15T22:02:59.753Z,14.21
2017-09-15T22:04:08.592Z,14.21
2017-09-15T22:05:17.421Z,14.2
2017-09-15T22:06:26.260Z,14.2
2017-09-15T22:07:35.097Z,14.24
2017-09-15T22:08:43.932Z,14.22
2017-09-15T22:09:52.767Z,14.24
2017-09-15T22:11:01.607Z,14.22
2017-09-15T22:12:10.441Z,14.17
2017-09-15T22:13:19.275Z,14.14
2017-09-15T22:14:28.112Z,14.09
2017-09-15T22:15:36.948Z,14.09
2017-09-15T22:16:45.789Z,14.14
2017-09-15T22:17:54.624Z,14.07
2017-09-15T22:19:03.457Z,14.12
2017-09-15T22:20:12.310Z,14.2
2017-09-15T22:21:21.149Z,14.07
2017-09-15T22:22:29.983Z,14.14
2017-09-15T22:23:38.826Z,14.06
2017-09-15T22:24:47.661Z,14.07
2017-09-15T22:25:56.496Z,14.1
2017-09-15T22:27:05.331Z,14.06
2017-09-15T22:28:14.169Z,14.1
2017-09-15T22:29:23.005Z,14.07
2017-09-15T22:30:31.840Z,14.04
2017-09-15T22:31:40.679Z,14.07
2017-09-15T22:32:49.644Z,13.99
2017-09-15T22:33:58.480Z,14.06
2017-09-15T22:35:07.316Z,14.1
2017-09-15T22:36:16.150Z,14.12
2017-09-15T22:37:25.094Z,14.02
2017-09-15T22:38:33.932Z,14.03
2017-09-15T22:39:43.171Z,14.02
2017-09-15T22:40:52.001Z,14.04
2017-09-15T22:42:00.839Z,13.91
2017-09-15T22:43:09.676Z,14
2017-09-15T22:44:18.840Z,14.02
2017-09-15T22:45:27.745Z,13.91
2017-09-15T22:46:36.610Z,14.03
2017-09-15T22:47:45.598Z,14.06
2017-09-15T22:48:54.654Z,14.04
2017-09-15T22:50:03.492Z,14.03
2017-09-15T22:51:12.323Z,14.03
2017-09-15T22:52:21.328Z,13.95
2017-09-15T22:53:30.334Z,13.95
2017-09-15T22:54:39.169Z,14.03
2017-09-15T22:55:48.005Z,13.97
2017-09-15T22:56:56.844Z,13.92
2017-09-15T22:58:06.197Z,14
2017-09-15T22:59:15.634Z,13.89
2017-09-15T23:00:25.745Z,13.92
2017-09-15T23:01:34.684Z,13.89
2017-09-15T23:02:43.548Z,13.96
2017-09-15T23:03:52.716Z,13.92
2017-09-15T23:05:01.552Z,13.92
2017-09-15T23:06:10.582Z,14.02
2017-09-15T23:07:19.643Z,14.03
2017-09-15T23:08:28.914Z,14.06
2017-09-15T23:09:37.749Z,13.89
2017-09-15T23:10:47.010Z,13.97
2017-09-15T23:11:55.844Z,13.99
2017-09-15T23:13:04.677Z,13.92
2017-09-15T23:14:13.510Z,13.89
2017-09-15T23:15:22.938Z,13.85
2017-09-15T23:16:32.564Z,13.81
2017-09-15T23:17:41.711Z,13.82
2017-09-15T23:18:50.549Z,13.82
2017-09-15T23:19:59.704Z,13.81
2017-09-15T23:21:09.278Z,13.84
2017-09-15T23:22:18.114Z,13.81
2017-09-15T23:23:27.470Z,13.81
2017-09-15T23:24:36.308Z,13.84
2017-09-15T23:25:45.893Z,13.84
2017-09-15T23:26:54.888Z,13.81
2017-09-15T23:28:03.730Z,13.78
2017-09-15T23:29:12.654Z,13.82
2017-09-15T23:30:21.849Z,13.87
2017-09-15T23:31:30.838Z,13.87
2017-09-15T23:32:39.819Z,13.85
2017-09-15T23:33:48.839Z,13.85
2017-09-15T23:34:57.703Z,13.81
2017-09-15T23:36:06.954Z,13.87
2017-09-15T23:37:15.784Z,13.81
2017-09-15T23:38:25.409Z,13.87
2017-09-15T23:39:34.245Z,13.85
2017-09-15T23:40:43.081Z,13.81
2017-09-15T23:41:51.914Z,13.82
2017-09-15T23:43:00.755Z,13.88
2017-09-15T23:44:09.590Z,13.77
2017-09-15T23:45:18.434Z,13.84
2017-09-15T23:46:27.264Z,13.79
2017-09-15T23:47:36.102Z,13.77
2017-09-15T23:48:44.932Z,13.75
2017-09-15T23:49:53.764Z,13.75
2017-09-15T23:51:02.599Z,13.67
2017-09-15T23:52:11.437Z,13.71
2017-09-15T23:53:20.275Z,13.77
2017-09-15T23:54:29.109Z,13.67
2017-09-15T23:55:37.946Z,13.63
2017-09-15T23:56:47.114Z,13.55
2017-09-15T23:57:55.959Z,13.71
2017-09-15T23:59:04.791Z,13.64
